sensor_id;sensor_type;location;lat;lon;timestamp;pressure;altitude;pressure_sealevel;temperature;humidity
32197;BME280;18697;42.770;23.400;2022-10-13T00:00:14;96398.31;;;18.32;58.02
32197;BME280;18697;42.770;23.400;2022-10-13T00:02:40;96401.84;;;18.27;59.86
32197;BME280;18697;42.770;23.400;2022-10-13T00:05:05;96405.06;;;16.92;56.22
32197;BME280;18697;42.770;23.400;2022-10-13T00:07:31;96404.16;;;17.01;63.92
32197;BME280;18697;42.770;23.400;2022-10-13T00:09:56;96409.34;;;16.73;63.48
32197;BME280;18697;42.770;23.400;2022-10-13T00:12:21;96403.09;;;16.98;66.54
32197;BME280;18697;42.770;23.400;2022-10-13T00:14:47;96400.78;;;17.17;65.79
32197;BME280;18697;42.770;23.400;2022-10-13T00:17:12;96402.06;;;17.36;64.26
32197;BME280;18697;42.770;23.400;2022-10-13T00:19:37;96399.56;;;17.38;63.49
32197;BME280;18697;42.770;23.400;2022-10-13T00:22:03;96389.50;;;17.52;64.27
32197;BME280;18697;42.770;23.400;2022-10-13T00:24:28;96388.47;;;17.70;63.73
32197;BME280;18697;42.770;23.400;2022-10-13T00:26:53;96391.16;;;17.79;63.42
32197;BME280;18697;42.770;23.400;2022-10-13T00:29:19;96392.44;;;17.84;63.18
32197;BME280;18697;42.770;23.400;2022-10-13T00:31:44;96385.84;;;17.87;62.29
32197;BME280;18697;42.770;23.400;2022-10-13T00:34:11;96387.50;;;17.99;62.38
32197;BME280;18697;42.770;23.400;2022-10-13T00:36:36;96386.34;;;18.11;61.94
32197;BME280;18697;42.770;23.400;2022-10-13T00:39:02;96389.16;;;18.11;61.65
32197;BME280;18697;42.770;23.400;2022-10-13T00:41:28;96386.19;;;18.20;61.18
32197;BME280;18697;42.770;23.400;2022-10-13T00:46:22;96376.59;;;18.06;61.32
32197;BME280;18697;42.770;23.400;2022-10-13T00:48:50;96377.38;;;18.07;61.47
32197;BME280;18697;42.770;23.400;2022-10-13T00:51:20;96371.34;;;17.94;60.80
32197;BME280;18697;42.770;23.400;2022-10-13T00:53:47;96375.50;;;17.98;61.30
32197;BME280;18697;42.770;23.400;2022-10-13T00:56:14;96369.81;;;17.93;60.71
32197;BME280;18697;42.770;23.400;2022-10-13T00:58:42;96368.66;;;18.05;60.84
32197;BME280;18697;42.770;23.400;2022-10-13T01:01:08;96362.69;;;17.97;60.46
32197;BME280;18697;42.770;23.400;2022-10-13T01:03:34;96360.16;;;17.99;61.02
32197;BME280;18697;42.770;23.400;2022-10-13T01:06:02;96361.88;;;17.91;59.45
32197;BME280;18697;42.770;23.400;2022-10-13T01:08:29;96365.72;;;17.94;61.23
32197;BME280;18697;42.770;23.400;2022-10-13T01:17:03;96375.75;;;17.34;59.50
32197;BME280;18697;42.770;23.400;2022-10-13T01:25:33;96378.63;;;15.52;62.24
32197;BME280;18697;42.770;23.400;2022-10-13T01:30:57;96375.97;;;15.33;70.12
32197;BME280;18697;42.770;23.400;2022-10-13T01:33:38;96372.72;;;15.88;69.25
32197;BME280;18697;42.770;23.400;2022-10-13T01:36:18;96360.16;;;16.13;67.75
32197;BME280;18697;42.770;23.400;2022-10-13T01:38:56;96361.75;;;16.49;66.11
32197;BME280;18697;42.770;23.400;2022-10-13T01:41:25;96369.41;;;16.49;65.57
32197;BME280;18697;42.770;23.400;2022-10-13T01:44:13;96376.25;;;16.62;65.34
32197;BME280;18697;42.770;23.400;2022-10-13T01:46:41;96367.03;;;16.91;65.09
32197;BME280;18697;42.770;23.400;2022-10-13T01:49:13;96372.72;;;17.17;63.76
32197;BME280;18697;42.770;23.400;2022-10-13T01:51:39;96369.78;;;17.26;63.21
32197;BME280;18697;42.770;23.400;2022-10-13T01:54:06;96371.53;;;17.24;62.74
32197;BME280;18697;42.770;23.400;2022-10-13T01:56:31;96362.69;;;17.31;62.20
32197;BME280;18697;42.770;23.400;2022-10-13T01:58:57;96366.84;;;17.35;62.51
32197;BME280;18697;42.770;23.400;2022-10-13T02:01:43;96366.69;;;17.45;62.71
32197;BME280;18697;42.770;23.400;2022-10-13T02:07:00;96365.69;;;16.87;62.66
32197;BME280;18697;42.770;23.400;2022-10-13T02:09:53;96364.53;;;16.79;64.04
32197;BME280;18697;42.770;23.400;2022-10-13T02:12:36;96372.00;;;16.82;63.32
32197;BME280;18697;42.770;23.400;2022-10-13T02:15:06;96375.09;;;16.84;63.93
32197;BME280;18697;42.770;23.400;2022-10-13T02:17:33;96369.78;;;17.06;63.04
32197;BME280;18697;42.770;23.400;2022-10-13T02:19:59;96366.97;;;17.06;62.26
32197;BME280;18697;42.770;23.400;2022-10-13T02:22:29;96369.00;;;17.05;61.30
32197;BME280;18697;42.770;23.400;2022-10-13T02:24:56;96368.25;;;17.05;63.01
32197;BME280;18697;42.770;23.400;2022-10-13T02:27:22;96362.91;;;17.07;62.79
32197;BME280;18697;42.770;23.400;2022-10-13T02:29:48;96353.28;;;17.14;62.87
32197;BME280;18697;42.770;23.400;2022-10-13T02:32:14;96363.59;;;17.22;62.78
32197;BME280;18697;42.770;23.400;2022-10-13T02:34:39;96348.38;;;17.29;61.97
32197;BME280;18697;42.770;23.400;2022-10-13T02:37:05;96344.31;;;17.30;61.63
32197;BME280;18697;42.770;23.400;2022-10-13T02:39:30;96349.72;;;17.33;61.67
32197;BME280;18697;42.770;23.400;2022-10-13T02:41:55;96342.69;;;17.44;61.86
32197;BME280;18697;42.770;23.400;2022-10-13T02:44:21;96343.69;;;17.40;61.33
32197;BME280;18697;42.770;23.400;2022-10-13T02:46:48;96338.19;;;17.31;61.36
32197;BME280;18697;42.770;23.400;2022-10-13T02:49:14;96336.50;;;17.39;61.03
32197;BME280;18697;42.770;23.400;2022-10-13T02:51:39;96343.53;;;17.50;61.08
32197;BME280;18697;42.770;23.400;2022-10-13T02:54:04;96339.09;;;17.43;60.76
32197;BME280;18697;42.770;23.400;2022-10-13T02:56:30;96341.84;;;17.58;61.01
32197;BME280;18697;42.770;23.400;2022-10-13T02:58:55;96325.41;;;17.51;59.91
32197;BME280;18697;42.770;23.400;2022-10-13T03:01:20;96332.16;;;17.59;60.11
32197;BME280;18697;42.770;23.400;2022-10-13T03:03:46;96337.75;;;17.59;59.75
32197;BME280;18697;42.770;23.400;2022-10-13T03:06:11;96329.34;;;17.59;60.28
32197;BME280;18697;42.770;23.400;2022-10-13T03:08:37;96333.97;;;17.62;59.60
32197;BME280;18697;42.770;23.400;2022-10-13T03:11:02;96334.34;;;17.69;60.08
32197;BME280;18697;42.770;23.400;2022-10-13T03:13:28;96332.69;;;17.63;60.21
32197;BME280;18697;42.770;23.400;2022-10-13T03:15:53;96323.88;;;17.70;59.94
32197;BME280;18697;42.770;23.400;2022-10-13T03:18:18;96326.47;;;17.73;60.06
32197;BME280;18697;42.770;23.400;2022-10-13T03:20:44;96335.16;;;17.76;59.97
32197;BME280;18697;42.770;23.400;2022-10-13T03:23:09;96327.72;;;17.72;59.51
32197;BME280;18697;42.770;23.400;2022-10-13T03:25:34;96328.22;;;17.71;60.13
32197;BME280;18697;42.770;23.400;2022-10-13T03:28:00;96330.75;;;17.69;59.78
32197;BME280;18697;42.770;23.400;2022-10-13T03:30:25;96335.38;;;17.72;59.81
32197;BME280;18697;42.770;23.400;2022-10-13T03:32:51;96337.38;;;17.66;59.20
32197;BME280;18697;42.770;23.400;2022-10-13T03:35:17;96338.41;;;17.48;57.69
32197;BME280;18697;42.770;23.400;2022-10-13T03:37:42;96330.47;;;16.86;58.90
32197;BME280;18697;42.770;23.400;2022-10-13T03:40:08;96333.72;;;16.49;59.24
32197;BME280;18697;42.770;23.400;2022-10-13T03:42:35;96333.97;;;16.31;63.85
32197;BME280;18697;42.770;23.400;2022-10-13T03:45:00;96332.25;;;15.60;61.73
32197;BME280;18697;42.770;23.400;2022-10-13T03:47:26;96348.06;;;13.83;63.55
32197;BME280;18697;42.770;23.400;2022-10-13T03:49:52;96339.69;;;13.74;72.06
32197;BME280;18697;42.770;23.400;2022-10-13T03:52:19;96330.25;;;14.23;73.66
32197;BME280;18697;42.770;23.400;2022-10-13T03:54:44;96337.72;;;14.17;70.22
32197;BME280;18697;42.770;23.400;2022-10-13T03:57:10;96337.09;;;14.12;69.33
32197;BME280;18697;42.770;23.400;2022-10-13T03:59:35;96340.34;;;13.69;69.27
32197;BME280;18697;42.770;23.400;2022-10-13T04:02:00;96339.53;;;13.77;71.19
32197;BME280;18697;42.770;23.400;2022-10-13T04:04:25;96336.94;;;13.37;68.67
32197;BME280;18697;42.770;23.400;2022-10-13T04:06:51;96334.91;;;13.47;74.50
32197;BME280;18697;42.770;23.400;2022-10-13T04:09:16;96341.22;;;13.93;76.45
32197;BME280;18697;42.770;23.400;2022-10-13T04:11:42;96337.84;;;13.80;70.42
32197;BME280;18697;42.770;23.400;2022-10-13T04:14:07;96333.44;;;14.06;72.96
32197;BME280;18697;42.770;23.400;2022-10-13T04:16:32;96330.41;;;14.61;73.57
32197;BME280;18697;42.770;23.400;2022-10-13T04:19:01;96327.69;;;15.24;71.46
32197;BME280;18697;42.770;23.400;2022-10-13T04:21:29;96332.19;;;15.45;68.99
32197;BME280;18697;42.770;23.400;2022-10-13T04:23:56;96325.66;;;15.77;68.09
32197;BME280;18697;42.770;23.400;2022-10-13T04:26:24;96329.63;;;16.00;66.94
32197;BME280;18697;42.770;23.400;2022-10-13T04:28:51;96330.13;;;16.14;67.44
32197;BME280;18697;42.770;23.400;2022-10-13T04:31:18;96329.94;;;16.17;65.87
32197;BME280;18697;42.770;23.400;2022-10-13T04:33:46;96331.66;;;16.15;65.84
32197;BME280;18697;42.770;23.400;2022-10-13T04:36:13;96331.72;;;16.35;65.20
32197;BME280;18697;42.770;23.400;2022-10-13T04:38:40;96331.31;;;16.42;64.97
32197;BME280;18697;42.770;23.400;2022-10-13T04:41:06;96331.59;;;16.44;63.89
32197;BME280;18697;42.770;23.400;2022-10-13T04:43:32;96327.63;;;16.51;63.19
32197;BME280;18697;42.770;23.400;2022-10-13T04:46:03;96328.56;;;16.62;64.47
32197;BME280;18697;42.770;23.400;2022-10-13T04:48:29;96331.69;;;16.64;63.39
32197;BME280;18697;42.770;23.400;2022-10-13T04:51:20;96319.59;;;16.73;63.87
32197;BME280;18697;42.770;23.400;2022-10-13T04:53:44;96333.91;;;16.75;63.48
32197;BME280;18697;42.770;23.400;2022-10-13T04:56:13;96341.34;;;16.78;62.25
32197;BME280;18697;42.770;23.400;2022-10-13T04:58:40;96345.88;;;16.61;60.16
32197;BME280;18697;42.770;23.400;2022-10-13T05:01:07;96346.09;;;16.57;62.24
32197;BME280;18697;42.770;23.400;2022-10-13T05:03:33;96343.00;;;16.55;61.96
32197;BME280;18697;42.770;23.400;2022-10-13T05:05:59;96343.09;;;16.61;63.59
32197;BME280;18697;42.770;23.400;2022-10-13T05:08:25;96339.03;;;16.47;62.17
32197;BME280;18697;42.770;23.400;2022-10-13T05:11:01;96335.66;;;16.43;62.32
32197;BME280;18697;42.770;23.400;2022-10-13T05:13:28;96349.94;;;16.60;63.59
32197;BME280;18697;42.770;23.400;2022-10-13T05:15:53;96355.38;;;16.63;63.01
32197;BME280;18697;42.770;23.400;2022-10-13T05:18:19;96345.72;;;16.64;63.06
32197;BME280;18697;42.770;23.400;2022-10-13T05:20:44;96359.63;;;16.73;63.13
32197;BME280;18697;42.770;23.400;2022-10-13T05:23:11;96354.66;;;16.83;62.70
32197;BME280;18697;42.770;23.400;2022-10-13T05:25:36;96361.75;;;16.79;62.93
32197;BME280;18697;42.770;23.400;2022-10-13T05:28:06;96359.06;;;16.69;60.48
32197;BME280;18697;42.770;23.400;2022-10-13T05:30:32;96358.56;;;16.56;62.24
32197;BME280;18697;42.770;23.400;2022-10-13T05:32:57;96361.38;;;16.71;62.92
32197;BME280;18697;42.770;23.400;2022-10-13T05:35:24;96362.44;;;16.73;62.39
32197;BME280;18697;42.770;23.400;2022-10-13T05:37:49;96364.75;;;16.75;61.23
32197;BME280;18697;42.770;23.400;2022-10-13T05:40:15;96379.22;;;16.88;61.88
32197;BME280;18697;42.770;23.400;2022-10-13T05:42:40;96376.06;;;16.81;62.21
32197;BME280;18697;42.770;23.400;2022-10-13T05:45:08;96375.09;;;16.84;61.72
32197;BME280;18697;42.770;23.400;2022-10-13T05:47:34;96383.88;;;16.91;62.22
32197;BME280;18697;42.770;23.400;2022-10-13T05:49:59;96383.78;;;16.86;62.52
32197;BME280;18697;42.770;23.400;2022-10-13T05:52:25;96386.31;;;16.84;62.02
32197;BME280;18697;42.770;23.400;2022-10-13T05:54:54;96381.84;;;16.92;61.94
32197;BME280;18697;42.770;23.400;2022-10-13T05:57:27;96381.38;;;16.79;61.55
32197;BME280;18697;42.770;23.400;2022-10-13T05:59:58;96391.91;;;16.84;62.32
32197;BME280;18697;42.770;23.400;2022-10-13T06:02:27;96391.53;;;16.61;62.75
32197;BME280;18697;42.770;23.400;2022-10-13T06:04:58;96393.41;;;16.64;62.79
32197;BME280;18697;42.770;23.400;2022-10-13T06:07:24;96398.50;;;16.51;63.56
32197;BME280;18697;42.770;23.400;2022-10-13T06:09:50;96390.28;;;16.62;62.67
32197;BME280;18697;42.770;23.400;2022-10-13T06:12:15;96387.00;;;16.49;59.75
32197;BME280;18697;42.770;23.400;2022-10-13T06:14:40;96391.16;;;16.39;64.27
32197;BME280;18697;42.770;23.400;2022-10-13T06:17:06;96393.19;;;16.53;62.90
32197;BME280;18697;42.770;23.400;2022-10-13T06:19:32;96399.66;;;16.44;61.63
32197;BME280;18697;42.770;23.400;2022-10-13T06:21:57;96394.34;;;16.61;62.20
32197;BME280;18697;42.770;23.400;2022-10-13T06:24:23;96388.81;;;16.82;62.22
32197;BME280;18697;42.770;23.400;2022-10-13T06:26:48;96392.91;;;16.66;60.22
32197;BME280;18697;42.770;23.400;2022-10-13T06:29:14;96395.06;;;16.27;63.10
32197;BME280;18697;42.770;23.400;2022-10-13T06:31:39;96394.81;;;16.60;62.66
32197;BME280;18697;42.770;23.400;2022-10-13T06:34:05;96397.81;;;15.83;60.65
32197;BME280;18697;42.770;23.400;2022-10-13T06:36:30;96400.91;;;15.85;64.93
32197;BME280;18697;42.770;23.400;2022-10-13T06:38:55;96397.09;;;16.12;64.60
32197;BME280;18697;42.770;23.400;2022-10-13T06:41:21;96393.91;;;16.33;64.62
32197;BME280;18697;42.770;23.400;2022-10-13T06:43:46;96397.34;;;16.72;63.49
32197;BME280;18697;42.770;23.400;2022-10-13T06:46:11;96388.25;;;16.78;62.95
32197;BME280;18697;42.770;23.400;2022-10-13T06:48:37;96387.41;;;17.06;61.98
32197;BME280;18697;42.770;23.400;2022-10-13T06:51:08;96393.50;;;17.05;62.27
32197;BME280;18697;42.770;23.400;2022-10-13T06:53:34;96391.09;;;16.98;62.19
32197;BME280;18697;42.770;23.400;2022-10-13T06:56:01;96386.34;;;17.24;60.63
32197;BME280;18697;42.770;23.400;2022-10-13T06:58:27;96388.69;;;16.91;61.50
32197;BME280;18697;42.770;23.400;2022-10-13T07:00:53;96381.44;;;16.99;62.01
32197;BME280;18697;42.770;23.400;2022-10-13T07:03:19;96380.59;;;16.78;61.77
32197;BME280;18697;42.770;23.400;2022-10-13T07:05:44;96375.16;;;16.89;62.49
32197;BME280;18697;42.770;23.400;2022-10-13T07:08:09;96378.25;;;17.12;62.15
32197;BME280;18697;42.770;23.400;2022-10-13T07:10:37;96371.75;;;17.20;61.21
32197;BME280;18697;42.770;23.400;2022-10-13T07:13:03;96365.44;;;17.25;62.07
32197;BME280;18697;42.770;23.400;2022-10-13T07:15:29;96370.50;;;17.41;61.66
32197;BME280;18697;42.770;23.400;2022-10-13T07:17:55;96366.69;;;17.65;60.70
32197;BME280;18697;42.770;23.400;2022-10-13T07:20:21;96372.00;;;17.83;59.83
32197;BME280;18697;42.770;23.400;2022-10-13T07:22:47;96366.84;;;17.76;58.88
32197;BME280;18697;42.770;23.400;2022-10-13T07:25:12;96377.38;;;17.40;60.37
32197;BME280;18697;42.770;23.400;2022-10-13T07:27:38;96378.56;;;17.34;60.20
32197;BME280;18697;42.770;23.400;2022-10-13T07:30:06;96378.63;;;17.39;62.01
32197;BME280;18697;42.770;23.400;2022-10-13T07:32:32;96370.34;;;17.51;61.24
32197;BME280;18697;42.770;23.400;2022-10-13T07:34:57;96372.53;;;17.41;60.98
32197;BME280;18697;42.770;23.400;2022-10-13T07:37:23;96374.50;;;17.55;62.06
32197;BME280;18697;42.770;23.400;2022-10-13T07:39:49;96369.44;;;17.59;60.59
32197;BME280;18697;42.770;23.400;2022-10-13T07:42:14;96362.91;;;17.68;61.28
32197;BME280;18697;42.770;23.400;2022-10-13T07:44:39;96365.06;;;17.58;60.71
32197;BME280;18697;42.770;23.400;2022-10-13T07:47:05;96370.31;;;17.91;60.85
32197;BME280;18697;42.770;23.400;2022-10-13T07:49:30;96367.69;;;17.82;61.25
32197;BME280;18697;42.770;23.400;2022-10-13T07:51:56;96371.63;;;17.96;59.60
32197;BME280;18697;42.770;23.400;2022-10-13T07:54:21;96372.75;;;16.82;63.22
32197;BME280;18697;42.770;23.400;2022-10-13T07:56:50;96368.78;;;17.09;61.83
32197;BME280;18697;42.770;23.400;2022-10-13T07:59:15;96368.19;;;17.40;61.52
32197;BME280;18697;42.770;23.400;2022-10-13T08:01:40;96367.78;;;17.93;60.77
32197;BME280;18697;42.770;23.400;2022-10-13T08:04:06;96359.84;;;17.92;60.01
32197;BME280;18697;42.770;23.400;2022-10-13T08:06:32;96355.09;;;18.03;60.47
32197;BME280;18697;42.770;23.400;2022-10-13T08:08:57;96351.78;;;18.31;59.73
32197;BME280;18697;42.770;23.400;2022-10-13T08:11:25;96352.41;;;18.78;57.78
32197;BME280;18697;42.770;23.400;2022-10-13T08:13:51;96351.00;;;18.99;56.55
32197;BME280;18697;42.770;23.400;2022-10-13T08:16:17;96351.06;;;19.10;56.56
32197;BME280;18697;42.770;23.400;2022-10-13T08:18:43;96341.91;;;19.21;56.62
32197;BME280;18697;42.770;23.400;2022-10-13T08:21:12;96347.03;;;19.22;56.53
32197;BME280;18697;42.770;23.400;2022-10-13T08:23:38;96339.94;;;19.44;56.41
32197;BME280;18697;42.770;23.400;2022-10-13T08:26:03;96335.72;;;19.71;55.83
32197;BME280;18697;42.770;23.400;2022-10-13T08:28:29;96336.06;;;20.00;54.49
32197;BME280;18697;42.770;23.400;2022-10-13T08:30:55;96326.84;;;20.28;53.83
32197;BME280;18697;42.770;23.400;2022-10-13T08:33:24;96332.97;;;20.04;53.71
32197;BME280;18697;42.770;23.400;2022-10-13T08:35:51;96334.00;;;20.01;54.26
32197;BME280;18697;42.770;23.400;2022-10-13T08:38:16;96320.41;;;20.22;53.65
32197;BME280;18697;42.770;23.400;2022-10-13T08:40:47;96327.84;;;20.02;53.17
32197;BME280;18697;42.770;23.400;2022-10-13T08:43:18;96321.94;;;19.89;53.09
32197;BME280;18697;42.770;23.400;2022-10-13T08:45:45;96319.31;;;19.69;54.46
32197;BME280;18697;42.770;23.400;2022-10-13T08:50:43;96320.41;;;19.99;54.75
32197;BME280;18697;42.770;23.400;2022-10-13T08:53:16;96317.56;;;19.88;53.71
32197;BME280;18697;42.770;23.400;2022-10-13T08:55:48;96309.31;;;19.62;54.08
32197;BME280;18697;42.770;23.400;2022-10-13T08:58:20;96307.91;;;18.45;57.36
32197;BME280;18697;42.770;23.400;2022-10-13T09:00:47;96302.63;;;18.21;58.71
32197;BME280;18697;42.770;23.400;2022-10-13T09:03:20;96303.84;;;17.88;59.58
32197;BME280;18697;42.770;23.400;2022-10-13T09:06:12;96294.25;;;18.00;59.40
32197;BME280;18697;42.770;23.400;2022-10-13T09:08:50;96294.72;;;18.25;59.26
32197;BME280;18697;42.770;23.400;2022-10-13T09:11:17;96290.59;;;18.20;58.48
32197;BME280;18697;42.770;23.400;2022-10-13T09:13:42;96287.63;;;18.66;58.56
32197;BME280;18697;42.770;23.400;2022-10-13T09:16:08;96285.06;;;18.68;58.13
32197;BME280;18697;42.770;23.400;2022-10-13T09:18:33;96282.38;;;18.48;58.27
32197;BME280;18697;42.770;23.400;2022-10-13T09:23:43;96284.13;;;19.42;56.40
32197;BME280;18697;42.770;23.400;2022-10-13T09:26:15;96275.13;;;19.38;55.74
32197;BME280;18697;42.770;23.400;2022-10-13T09:28:42;96272.72;;;19.90;56.46
32197;BME280;18697;42.770;23.400;2022-10-13T09:33:43;96261.09;;;19.49;54.69
32197;BME280;18697;42.770;23.400;2022-10-13T09:36:15;96260.94;;;20.09;53.87
32197;BME280;18697;42.770;23.400;2022-10-13T09:39:03;96245.81;;;20.17;52.90
32197;BME280;18697;42.770;23.400;2022-10-13T09:41:29;96249.41;;;19.90;54.00
32197;BME280;18697;42.770;23.400;2022-10-13T09:46:30;96244.53;;;19.74;52.84
32197;BME280;18697;42.770;23.400;2022-10-13T09:49:24;96246.31;;;20.49;52.94
32197;BME280;18697;42.770;23.400;2022-10-13T09:51:59;96238.06;;;20.79;50.67
32197;BME280;18697;42.770;23.400;2022-10-13T10:00:24;96239.19;;;21.17;50.66
32197;BME280;18697;42.770;23.400;2022-10-13T10:08:34;96227.06;;;21.34;49.41
32197;BME280;18697;42.770;23.400;2022-10-13T10:11:03;96210.91;;;21.28;48.85
32197;BME280;18697;42.770;23.400;2022-10-13T10:13:29;96215.16;;;20.88;49.32
32197;BME280;18697;42.770;23.400;2022-10-13T10:16:07;96212.41;;;20.77;49.19
32197;BME280;18697;42.770;23.400;2022-10-13T10:18:44;96199.06;;;21.36;48.87
32197;BME280;18697;42.770;23.400;2022-10-13T10:21:23;96196.28;;;21.24;49.37
32197;BME280;18697;42.770;23.400;2022-10-13T10:24:24;96198.19;;;21.52;48.12
32197;BME280;18697;42.770;23.400;2022-10-13T10:26:58;96187.56;;;21.22;47.36
32197;BME280;18697;42.770;23.400;2022-10-13T10:30:17;96196.03;;;21.17;47.92
32197;BME280;18697;42.770;23.400;2022-10-13T10:33:01;96194.09;;;21.47;47.23
32197;BME280;18697;42.770;23.400;2022-10-13T10:36:10;96190.00;;;21.78;46.54
32197;BME280;18697;42.770;23.400;2022-10-13T10:43:59;96168.69;;;22.13;42.98
32197;BME280;18697;42.770;23.400;2022-10-13T10:46:34;96161.59;;;21.95;43.32
32197;BME280;18697;42.770;23.400;2022-10-13T10:49:09;96157.03;;;21.86;44.40
32197;BME280;18697;42.770;23.400;2022-10-13T10:51:36;96165.88;;;21.77;44.30
32197;BME280;18697;42.770;23.400;2022-10-13T10:57:05;96146.53;;;22.17;44.81
32197;BME280;18697;42.770;23.400;2022-10-13T10:59:47;96136.38;;;22.51;44.77
32197;BME280;18697;42.770;23.400;2022-10-13T11:05:02;96134.81;;;22.75;43.19
32197;BME280;18697;42.770;23.400;2022-10-13T11:12:21;96124.66;;;23.22;42.33
32197;BME280;18697;42.770;23.400;2022-10-13T11:17:26;96118.22;;;23.22;39.32
32197;BME280;18697;42.770;23.400;2022-10-13T11:19:51;96119.09;;;22.98;40.00
32197;BME280;18697;42.770;23.400;2022-10-13T11:22:19;96118.69;;;22.88;41.50
32197;BME280;18697;42.770;23.400;2022-10-13T11:24:46;96110.06;;;23.00;42.44
32197;BME280;18697;42.770;23.400;2022-10-13T11:51:28;96064.91;;;21.72;40.99
32197;BME280;18697;42.770;23.400;2022-10-13T11:58:58;96058.25;;;21.94;41.67
32197;BME280;18697;42.770;23.400;2022-10-13T12:01:24;96053.69;;;21.61;42.11
32197;BME280;18697;42.770;23.400;2022-10-13T12:03:49;96054.47;;;21.31;42.57
32197;BME280;18697;42.770;23.400;2022-10-13T12:08:40;96049.88;;;21.28;42.60
32197;BME280;18697;42.770;23.400;2022-10-13T12:13:52;96049.56;;;21.38;41.16
32197;BME280;18697;42.770;23.400;2022-10-13T12:16:18;96053.94;;;21.63;41.34
32197;BME280;18697;42.770;23.400;2022-10-13T12:18:44;96038.75;;;21.90;39.86
32197;BME280;18697;42.770;23.400;2022-10-13T12:21:13;96049.69;;;22.05;41.13
32197;BME280;18697;42.770;23.400;2022-10-13T12:23:39;96042.78;;;22.01;40.28
32197;BME280;18697;42.770;23.400;2022-10-13T12:26:05;96041.41;;;22.32;39.31
32197;BME280;18697;42.770;23.400;2022-10-13T12:29:00;96040.91;;;22.52;41.24
32197;BME280;18697;42.770;23.400;2022-10-13T12:31:27;96034.63;;;22.78;42.17
32197;BME280;18697;42.770;23.400;2022-10-13T12:34:01;96048.28;;;22.79;40.06
32197;BME280;18697;42.770;23.400;2022-10-13T12:36:34;96045.19;;;21.91;39.35
32197;BME280;18697;42.770;23.400;2022-10-13T12:39:03;96038.84;;;22.09;40.48
32197;BME280;18697;42.770;23.400;2022-10-13T12:41:34;96034.84;;;22.23;39.19
32197;BME280;18697;42.770;23.400;2022-10-13T12:44:02;96032.00;;;22.42;41.17
32197;BME280;18697;42.770;23.400;2022-10-13T12:51:42;96025.88;;;22.38;37.92
32197;BME280;18697;42.770;23.400;2022-10-13T12:54:29;96020.53;;;22.16;39.18
32197;BME280;18697;42.770;23.400;2022-10-13T12:56:58;96020.53;;;22.16;39.27
32197;BME280;18697;42.770;23.400;2022-10-13T12:59:25;96023.44;;;21.80;40.29
32197;BME280;18697;42.770;23.400;2022-10-13T13:01:55;96022.50;;;21.72;40.47
32197;BME280;18697;42.770;23.400;2022-10-13T13:09:20;96009.47;;;21.39;42.80
32197;BME280;18697;42.770;23.400;2022-10-13T13:11:46;96004.34;;;21.62;42.37
32197;BME280;18697;42.770;23.400;2022-10-13T13:17:10;96001.06;;;21.82;43.69
32197;BME280;18697;42.770;23.400;2022-10-13T13:19:37;96005.91;;;21.87;42.89
32197;BME280;18697;42.770;23.400;2022-10-13T13:22:04;96003.78;;;21.69;40.02
32197;BME280;18697;42.770;23.400;2022-10-13T13:24:30;96003.66;;;21.80;42.24
32197;BME280;18697;42.770;23.400;2022-10-13T13:26:55;96005.53;;;21.96;43.28
32197;BME280;18697;42.770;23.400;2022-10-13T13:29:21;96003.78;;;22.18;44.04
32197;BME280;18697;42.770;23.400;2022-10-13T13:31:46;96000.19;;;22.36;42.36
32197;BME280;18697;42.770;23.400;2022-10-13T13:34:12;95998.34;;;22.39;41.76
32197;BME280;18697;42.770;23.400;2022-10-13T13:36:37;95998.22;;;22.50;43.58
32197;BME280;18697;42.770;23.400;2022-10-13T13:39:03;96002.50;;;22.56;42.76
32197;BME280;18697;42.770;23.400;2022-10-13T13:41:30;95998.28;;;22.63;42.81
32197;BME280;18697;42.770;23.400;2022-10-13T13:43:56;95996.91;;;22.70;42.64
32197;BME280;18697;42.770;23.400;2022-10-13T13:46:25;96002.03;;;22.71;43.06
32197;BME280;18697;42.770;23.400;2022-10-13T13:48:51;96008.47;;;22.72;43.36
32197;BME280;18697;42.770;23.400;2022-10-13T13:51:18;96003.03;;;22.74;43.24
32197;BME280;18697;42.770;23.400;2022-10-13T13:53:44;95989.31;;;22.78;43.85
32197;BME280;18697;42.770;23.400;2022-10-13T13:56:15;95992.31;;;22.67;43.83
32197;BME280;18697;42.770;23.400;2022-10-13T13:58:41;95996.06;;;22.56;45.08
32197;BME280;18697;42.770;23.400;2022-10-13T14:01:08;95997.13;;;22.34;44.88
32197;BME280;18697;42.770;23.400;2022-10-13T14:03:33;95991.59;;;22.04;45.90
32197;BME280;18697;42.770;23.400;2022-10-13T14:05:59;95989.69;;;21.63;46.51
32197;BME280;18697;42.770;23.400;2022-10-13T14:08:24;95987.28;;;21.49;46.99
32197;BME280;18697;42.770;23.400;2022-10-13T14:10:49;95993.66;;;21.25;47.37
32197;BME280;18697;42.770;23.400;2022-10-13T14:13:15;95989.25;;;20.94;47.76
32197;BME280;18697;42.770;23.400;2022-10-13T14:15:40;95987.88;;;20.76;48.17
32197;BME280;18697;42.770;23.400;2022-10-13T14:18:05;95982.38;;;20.54;49.05
32197;BME280;18697;42.770;23.400;2022-10-13T14:20:32;95995.22;;;20.49;49.69
32197;BME280;18697;42.770;23.400;2022-10-13T14:22:57;95988.84;;;20.38;50.11
32197;BME280;18697;42.770;23.400;2022-10-13T14:25:22;95984.59;;;20.14;49.87
32197;BME280;18697;42.770;23.400;2022-10-13T14:27:48;95992.88;;;20.01;51.15
32197;BME280;18697;42.770;23.400;2022-10-13T14:30:14;95986.72;;;19.97;51.11
32197;BME280;18697;42.770;23.400;2022-10-13T14:32:39;95990.84;;;19.90;51.46
32197;BME280;18697;42.770;23.400;2022-10-13T14:35:05;95984.16;;;19.93;51.77
32197;BME280;18697;42.770;23.400;2022-10-13T14:37:31;95989.06;;;19.87;51.66
32197;BME280;18697;42.770;23.400;2022-10-13T14:39:56;95976.53;;;19.77;51.92
32197;BME280;18697;42.770;23.400;2022-10-13T14:42:21;95982.44;;;19.68;52.19